createdAt,value
2024-01-29T00:00:56.138Z,16.65
2024-01-29T00:03:23.843Z,15.07
2024-01-29T00:05:51.232Z,16.52
2024-01-29T00:08:18.717Z,14.07
2024-01-29T00:10:46.207Z,15.73
2024-01-29T00:13:13.717Z,15.70
2024-01-29T00:15:42.389Z,17.90
2024-01-29T00:18:09.749Z,16.10
2024-01-29T00:20:37.122Z,16.10
2024-01-29T00:23:04.602Z,15.85
2024-01-29T00:25:32.006Z,15.20
2024-01-29T00:27:59.503Z,15.00
2024-01-29T00:30:26.868Z,16.25
2024-01-29T00:32:54.258Z,13.57
2024-01-29T00:35:21.535Z,16.65
2024-01-29T00:37:49.613Z,18.17
2024-01-29T00:40:17.012Z,14.77
2024-01-29T00:42:44.398Z,16.95
2024-01-29T00:45:11.762Z,15.77
2024-01-29T00:47:39.065Z,16.92
2024-01-29T00:50:06.610Z,18.17
2024-01-29T00:52:34.533Z,16.97
2024-01-29T00:55:02.080Z,16.57
2024-01-29T00:57:29.611Z,17.08
2024-01-29T00:59:57.139Z,17.55
2024-01-29T01:02:25.480Z,16.35
2024-01-29T01:04:52.948Z,18.65
2024-01-29T01:07:20.401Z,16.55
2024-01-29T01:09:47.812Z,15.00
2024-01-29T01:12:15.119Z,17.23
2024-01-29T01:14:42.411Z,17.70
2024-01-29T01:17:09.695Z,15.93
2024-01-29T01:19:37.077Z,17.73
2024-01-29T01:22:04.442Z,16.90
2024-01-29T01:24:31.850Z,19.33
2024-01-29T01:26:59.156Z,17.70
2024-01-29T01:29:26.461Z,18.70
2024-01-29T01:31:53.844Z,16.60
2024-01-29T01:34:21.456Z,18.33
2024-01-29T01:36:48.927Z,16.17
2024-01-29T01:39:16.405Z,18.35
2024-01-29T01:41:50.113Z,18.63
2024-01-29T01:44:17.372Z,14.85
2024-01-29T01:46:44.783Z,17.73
2024-01-29T01:49:12.633Z,18.48
2024-01-29T01:51:40.382Z,17.65
2024-01-29T01:54:08.983Z,17.57
2024-01-29T01:56:37.188Z,16.35
2024-01-29T01:59:08.995Z,17.40
2024-01-29T02:01:36.547Z,16.98
2024-01-29T02:04:04.132Z,16.25
2024-01-29T02:06:31.490Z,19.17
2024-01-29T02:08:59.025Z,16.20
2024-01-29T02:11:26.367Z,17.88
2024-01-29T02:13:53.643Z,17.52
2024-01-29T02:16:24.087Z,17.13
2024-01-29T02:18:51.444Z,17.27
2024-01-29T02:21:18.758Z,16.05
2024-01-29T02:23:46.642Z,16.35
2024-01-29T02:26:17.004Z,17.10
2024-01-29T02:28:44.456Z,17.93
2024-01-29T02:31:11.810Z,16.97
2024-01-29T02:33:39.230Z,15.23
2024-01-29T02:36:06.744Z,16.57
2024-01-29T02:38:52.400Z,17.45
2024-01-29T02:43:46.864Z,16.02
2024-01-29T02:46:14.216Z,15.35
2024-01-29T02:48:42.018Z,15.18
2024-01-29T02:51:09.478Z,16.00
2024-01-29T02:53:36.800Z,16.85
2024-01-29T02:56:04.224Z,16.60
2024-01-29T02:58:32.953Z,18.73
2024-01-29T03:01:00.320Z,17.85
2024-01-29T03:03:27.701Z,20.10
2024-01-29T03:05:55.065Z,19.75
2024-01-29T03:08:22.366Z,18.73
2024-01-29T03:10:49.675Z,18.45
2024-01-29T03:13:17.014Z,16.83
2024-01-29T03:15:46.228Z,20.13
2024-01-29T03:18:13.638Z,20.42
2024-01-29T03:20:41.100Z,19.25
2024-01-29T03:23:08.417Z,20.50
2024-01-29T03:25:35.846Z,18.15
2024-01-29T03:28:03.963Z,19.02
2024-01-29T03:30:31.326Z,19.50
2024-01-29T03:32:58.731Z,19.02
2024-01-29T03:35:26.106Z,18.30
2024-01-29T03:37:53.345Z,19.73
2024-01-29T03:40:20.736Z,17.38
2024-01-29T03:42:48.018Z,20.25
2024-01-29T03:45:15.440Z,19.90
2024-01-29T03:47:42.682Z,17.48
2024-01-29T03:50:10.444Z,20.40
2024-01-29T03:52:37.837Z,15.65
2024-01-29T03:55:05.403Z,20.50
2024-01-29T03:57:32.825Z,20.05
2024-01-29T04:00:00.210Z,20.45
2024-01-29T04:02:27.484Z,20.35
2024-01-29T04:04:54.906Z,21.08
2024-01-29T04:07:22.329Z,19.00
2024-01-29T04:09:49.765Z,19.90
2024-01-29T04:12:17.640Z,17.33
2024-01-29T04:14:44.961Z,18.30
2024-01-29T04:17:13.741Z,19.02
2024-01-29T04:19:41.169Z,16.48
2024-01-29T04:22:09.147Z,20.23
2024-01-29T04:24:36.579Z,19.85
2024-01-29T04:27:03.935Z,19.08
2024-01-29T04:29:31.206Z,19.23
2024-01-29T04:31:58.488Z,18.55
2024-01-29T04:34:25.875Z,18.35
2024-01-29T04:36:53.378Z,21.48
2024-01-29T04:39:20.794Z,22.08
2024-01-29T04:41:48.061Z,20.73
2024-01-29T04:44:16.105Z,20.92
2024-01-29T04:46:43.484Z,20.23
2024-01-29T04:49:11.339Z,22.15
2024-01-29T04:51:39.607Z,18.40
2024-01-29T04:54:07.039Z,20.05
2024-01-29T04:56:34.340Z,19.50
2024-01-29T04:59:01.590Z,20.85
2024-01-29T05:01:29.249Z,20.27
2024-01-29T05:03:57.331Z,20.83
2024-01-29T05:06:24.832Z,18.58
2024-01-29T05:08:52.170Z,16.33
2024-01-29T05:11:19.478Z,16.75
2024-01-29T05:13:46.731Z,16.30
2024-01-29T05:16:14.716Z,18.20
2024-01-29T05:18:42.035Z,16.77
2024-01-29T05:21:09.391Z,18.65
2024-01-29T05:23:36.719Z,19.88
2024-01-29T05:26:05.650Z,16.60
2024-01-29T05:28:32.959Z,18.38
2024-01-29T05:31:00.549Z,18.17
2024-01-29T05:33:28.142Z,17.27
2024-01-29T05:35:56.725Z,16.83
2024-01-29T05:38:24.460Z,17.52
2024-01-29T05:40:51.695Z,17.48
2024-01-29T05:43:19.193Z,15.85
2024-01-29T05:45:47.836Z,15.98
2024-01-29T05:48:15.757Z,18.30
2024-01-29T05:50:43.435Z,14.48
2024-01-29T05:53:11.733Z,16.27
2024-01-29T05:55:39.096Z,15.25
2024-01-29T05:58:07.539Z,15.52
2024-01-29T06:00:35.145Z,17.08
2024-01-29T06:03:02.611Z,11.75
2024-01-29T06:05:30.073Z,16.60
2024-01-29T06:07:57.583Z,12.88
2024-01-29T06:10:25.066Z,14.40
2024-01-29T06:12:52.995Z,13.35
2024-01-29T06:15:20.502Z,14.43
2024-01-29T06:17:47.863Z,12.20
2024-01-29T06:20:18.224Z,16.52
2024-01-29T06:22:47.048Z,13.50
2024-01-29T06:25:14.525Z,13.55
2024-01-29T06:27:42.286Z,14.70
2024-01-29T06:30:09.914Z,13.70
2024-01-29T06:32:37.326Z,13.13
2024-01-29T06:35:05.239Z,14.57
2024-01-29T06:37:32.884Z,14.13
2024-01-29T06:40:00.427Z,15.43
2024-01-29T06:42:27.866Z,14.63
2024-01-29T06:44:56.190Z,15.70
2024-01-29T06:47:23.519Z,13.60
2024-01-29T06:49:50.858Z,14.38
2024-01-29T06:52:19.075Z,14.60
2024-01-29T06:54:46.875Z,12.57
2024-01-29T06:57:14.570Z,12.52
2024-01-29T06:59:41.987Z,14.60
2024-01-29T07:02:09.963Z,14.33
2024-01-29T07:04:37.765Z,15.33
2024-01-29T07:07:05.555Z,13.87
2024-01-29T07:09:33.349Z,14.13
2024-01-29T07:12:00.856Z,15.98
2024-01-29T07:14:28.226Z,14.95
2024-01-29T07:16:56.517Z,15.30
2024-01-29T07:19:28.912Z,15.10
2024-01-29T07:21:56.614Z,13.67
2024-01-29T07:24:24.283Z,13.75
2024-01-29T07:26:51.694Z,13.27
2024-01-29T07:29:19.017Z,12.70
2024-01-29T07:31:47.313Z,11.70
2024-01-29T07:34:15.215Z,11.75
2024-01-29T07:36:42.681Z,14.73
2024-01-29T07:39:13.795Z,12.67
2024-01-29T07:41:41.925Z,12.13
2024-01-29T07:44:09.205Z,13.07
2024-01-29T07:46:36.510Z,13.10
2024-01-29T07:49:05.173Z,11.73
2024-01-29T07:51:32.726Z,12.73
2024-01-29T07:54:00.530Z,11.33
2024-01-29T07:56:28.087Z,10.97
2024-01-29T07:58:55.392Z,11.93
2024-01-29T08:01:23.444Z,10.53
2024-01-29T08:03:51.007Z,11.37
2024-01-29T08:06:18.424Z,10.23
2024-01-29T08:08:45.745Z,9.80
2024-01-29T08:11:13.308Z,11.87
2024-01-29T08:13:40.756Z,12.93
2024-01-29T08:16:08.153Z,12.37
2024-01-29T08:18:35.567Z,12.47
2024-01-29T08:21:03.037Z,11.87
2024-01-29T08:23:30.324Z,12.83
2024-01-29T08:25:57.779Z,12.03
2024-01-29T08:28:24.991Z,12.67
2024-01-29T08:30:52.939Z,12.53
2024-01-29T08:33:20.243Z,13.27
2024-01-29T08:35:47.591Z,10.57
2024-01-29T08:38:15.285Z,10.90
2024-01-29T08:40:42.868Z,14.70
2024-01-29T08:43:10.514Z,14.17
2024-01-29T08:45:37.865Z,12.37
2024-01-29T08:48:06.347Z,14.73
2024-01-29T08:50:33.605Z,14.27
2024-01-29T08:53:01.068Z,13.77
2024-01-29T08:55:28.350Z,13.57
2024-01-29T08:57:55.656Z,14.07
2024-01-29T09:00:23.117Z,16.63
2024-01-29T09:02:51.165Z,13.90
2024-01-29T09:05:18.560Z,13.37
2024-01-29T09:07:45.876Z,12.57
2024-01-29T09:10:13.446Z,15.40
2024-01-29T09:12:40.960Z,14.00
2024-01-29T09:15:08.516Z,14.07
2024-01-29T09:17:35.936Z,14.07
2024-01-29T09:20:06.425Z,15.93
2024-01-29T09:22:33.914Z,15.40
2024-01-29T09:25:02.270Z,14.87
2024-01-29T09:27:30.807Z,14.40
2024-01-29T09:29:58.851Z,13.67
2024-01-29T09:32:26.258Z,11.57
2024-01-29T09:34:53.726Z,13.47
2024-01-29T09:37:21.946Z,13.00
2024-01-29T09:39:49.421Z,12.43
2024-01-29T09:42:18.693Z,13.30
2024-01-29T09:44:48.354Z,11.40
2024-01-29T09:47:16.123Z,12.60
2024-01-29T09:49:46.437Z,13.07
2024-01-29T09:52:14.427Z,13.60
2024-01-29T09:54:42.719Z,12.50
2024-01-29T09:57:13.305Z,12.67
2024-01-29T09:59:41.192Z,11.27
2024-01-29T10:02:09.425Z,12.03
2024-01-29T10:04:37.237Z,12.13
2024-01-29T10:07:05.065Z,12.60
2024-01-29T10:09:32.629Z,13.13
2024-01-29T10:11:59.997Z,11.13
2024-01-29T10:14:29.106Z,11.40
2024-01-29T10:16:56.545Z,12.17
2024-01-29T10:19:24.921Z,11.77
2024-01-29T10:21:52.265Z,11.60
2024-01-29T10:24:19.794Z,11.90
2024-01-29T10:26:47.664Z,11.20
2024-01-29T10:29:18.358Z,12.27
2024-01-29T10:31:45.813Z,10.90
2024-01-29T10:34:13.261Z,10.87
2024-01-29T10:36:41.866Z,10.03
2024-01-29T10:39:14.100Z,11.00
2024-01-29T10:41:44.922Z,10.93
2024-01-29T10:44:13.974Z,12.27
2024-01-29T10:46:41.516Z,12.27
2024-01-29T10:49:09.998Z,9.53
2024-01-29T10:51:37.450Z,10.87
2024-01-29T10:54:04.840Z,12.03
2024-01-29T10:56:32.414Z,10.57
2024-01-29T10:59:02.933Z,11.73
2024-01-29T11:01:33.164Z,12.37
2024-01-29T11:04:01.789Z,11.90
2024-01-29T11:06:29.365Z,12.80
2024-01-29T11:08:59.686Z,12.23
2024-01-29T11:11:29.018Z,11.93
2024-01-29T11:13:56.559Z,12.13
2024-01-29T11:16:24.531Z,12.20
2024-01-29T11:18:52.040Z,11.90
2024-01-29T11:21:25.064Z,11.07
2024-01-29T11:23:54.499Z,12.27
2024-01-29T11:26:23.056Z,11.00
2024-01-29T11:28:57.741Z,10.83
2024-01-29T11:31:25.721Z,12.10
2024-01-29T11:33:53.169Z,11.07
2024-01-29T11:36:23.337Z,11.60
2024-01-29T11:38:50.751Z,11.73
2024-01-29T11:41:20.497Z,11.03
2024-01-29T11:43:48.105Z,13.27
2024-01-29T11:46:16.630Z,10.77
2024-01-29T11:48:44.156Z,10.33
2024-01-29T11:51:11.499Z,11.53
2024-01-29T11:53:38.805Z,10.80
2024-01-29T11:56:06.597Z,11.83
2024-01-29T11:58:33.978Z,11.10
2024-01-29T12:01:01.465Z,9.43
2024-01-29T12:03:35.945Z,10.73
2024-01-29T12:06:03.827Z,11.25
2024-01-29T12:08:31.970Z,11.37
2024-01-29T12:11:01.648Z,11.00
2024-01-29T12:13:29.152Z,10.20
2024-01-29T12:15:57.486Z,10.30
2024-01-29T12:18:26.220Z,10.47
2024-01-29T12:20:54.836Z,10.87
2024-01-29T12:23:23.506Z,12.20
2024-01-29T12:25:58.938Z,11.00
2024-01-29T12:28:27.408Z,11.97
2024-01-29T12:30:58.222Z,11.37
2024-01-29T12:33:33.724Z,10.97
2024-01-29T12:36:18.292Z,11.10
2024-01-29T12:38:46.592Z,11.27
2024-01-29T12:41:14.163Z,11.27
2024-01-29T12:43:41.835Z,11.07
2024-01-29T12:46:16.252Z,10.63
2024-01-29T12:48:44.496Z,12.83
2024-01-29T12:51:12.934Z,11.90
2024-01-29T12:53:40.718Z,10.93
2024-01-29T12:56:08.116Z,10.57
2024-01-29T12:58:35.692Z,11.40
2024-01-29T13:01:03.186Z,10.93
2024-01-29T13:03:30.631Z,11.10
2024-01-29T13:06:00.464Z,11.30
2024-01-29T13:08:28.885Z,12.43
2024-01-29T13:10:56.474Z,10.97
2024-01-29T13:13:24.627Z,12.23
2024-01-29T13:15:55.466Z,12.27
2024-01-29T13:18:23.427Z,11.37
2024-01-29T13:20:50.857Z,12.30
2024-01-29T13:23:18.413Z,12.63
2024-01-29T13:25:45.830Z,12.53
2024-01-29T13:28:13.343Z,11.70
2024-01-29T13:30:40.811Z,12.67
2024-01-29T13:33:09.388Z,11.70
2024-01-29T13:35:36.811Z,12.87
2024-01-29T13:38:04.191Z,12.00
2024-01-29T13:40:31.966Z,12.33
2024-01-29T13:42:59.395Z,11.67
2024-01-29T13:45:26.760Z,13.40
2024-01-29T13:47:54.487Z,12.13
2024-01-29T13:50:21.979Z,12.77
2024-01-29T13:52:49.342Z,13.70
2024-01-29T13:55:17.947Z,12.93
2024-01-29T13:57:45.361Z,13.50
2024-01-29T14:00:14.891Z,14.50
2024-01-29T14:02:42.470Z,13.43
2024-01-29T14:05:10.424Z,11.77
2024-01-29T14:07:38.740Z,13.10
2024-01-29T14:10:06.521Z,13.37
2024-01-29T14:12:33.969Z,12.67
2024-01-29T14:15:04.578Z,13.20
2024-01-29T14:17:32.568Z,14.50
2024-01-29T14:20:01.105Z,13.20
2024-01-29T14:22:29.064Z,13.70
2024-01-29T14:24:57.981Z,12.30
2024-01-29T14:27:25.613Z,12.70
2024-01-29T14:29:52.945Z,14.80
2024-01-29T14:32:20.276Z,14.17
2024-01-29T14:34:47.649Z,13.60
2024-01-29T14:37:15.223Z,13.33
2024-01-29T14:39:43.847Z,14.63
2024-01-29T14:42:11.265Z,15.63
2024-01-29T14:44:38.611Z,15.27
2024-01-29T14:47:05.953Z,15.03
2024-01-29T14:49:33.432Z,15.30
2024-01-29T14:52:03.310Z,14.90
2024-01-29T14:54:30.783Z,13.97
2024-01-29T14:56:58.082Z,14.57
2024-01-29T14:59:25.732Z,14.63
2024-01-29T15:01:53.209Z,14.37
2024-01-29T15:04:20.808Z,13.27
2024-01-29T15:06:48.515Z,15.53
2024-01-29T15:09:16.142Z,14.43
2024-01-29T15:11:46.805Z,13.63
2024-01-29T15:14:14.238Z,14.27
2024-01-29T15:16:41.731Z,15.60
2024-01-29T15:19:09.155Z,13.37
2024-01-29T15:21:36.607Z,15.20
2024-01-29T15:24:03.968Z,13.60
2024-01-29T15:26:32.944Z,13.90
2024-01-29T15:29:00.321Z,14.90
2024-01-29T15:31:30.676Z,14.20
2024-01-29T15:33:58.141Z,13.90
2024-01-29T15:36:25.658Z,16.33
2024-01-29T15:38:53.023Z,14.77
2024-01-29T15:41:20.687Z,15.53
2024-01-29T15:43:48.239Z,16.00
2024-01-29T15:46:15.975Z,16.17
2024-01-29T15:48:43.631Z,16.47
2024-01-29T15:51:12.377Z,17.10
2024-01-29T15:53:39.687Z,17.70
2024-01-29T15:56:07.174Z,17.33
2024-01-29T15:58:34.641Z,18.67
2024-01-29T16:01:02.103Z,17.37
2024-01-29T16:03:29.619Z,20.30
2024-01-29T16:05:57.035Z,18.43
2024-01-29T16:08:24.514Z,20.53
2024-01-29T16:10:52.387Z,19.03
2024-01-29T16:13:19.835Z,20.73
2024-01-29T16:15:47.342Z,20.27
2024-01-29T16:18:15.545Z,18.23
2024-01-29T16:20:43.060Z,18.60
2024-01-29T16:23:10.354Z,21.13
2024-01-29T16:25:37.701Z,20.13
2024-01-29T16:28:07.525Z,19.50
2024-01-29T16:30:36.683Z,20.90
2024-01-29T16:33:04.690Z,20.10
2024-01-29T16:35:32.207Z,22.00
2024-01-29T16:37:59.811Z,20.40
2024-01-29T16:40:27.889Z,16.97
2024-01-29T16:42:55.320Z,20.87
2024-01-29T16:45:22.657Z,20.53
2024-01-29T16:47:49.963Z,17.50
2024-01-29T16:50:17.594Z,19.13
2024-01-29T16:52:45.694Z,21.53
2024-01-29T16:55:13.025Z,20.47
2024-01-29T16:57:40.460Z,22.27
2024-01-29T17:00:08.774Z,21.70
2024-01-29T17:02:36.318Z,21.60
2024-01-29T17:05:04.238Z,22.03
2024-01-29T17:07:32.054Z,20.80
2024-01-29T17:09:59.896Z,22.73
2024-01-29T17:12:27.344Z,22.90
2024-01-29T17:14:54.948Z,20.57
2024-01-29T17:17:22.371Z,22.27
2024-01-29T17:19:50.082Z,21.23
2024-01-29T17:22:17.792Z,19.73
2024-01-29T17:24:46.031Z,24.47
2024-01-29T17:27:13.518Z,22.67
2024-01-29T17:29:41.365Z,21.90
2024-01-29T17:32:09.761Z,24.33
2024-01-29T17:34:41.602Z,20.50
2024-01-29T17:37:09.230Z,23.40
2024-01-29T17:39:36.645Z,24.23
2024-01-29T17:42:05.227Z,25.23
2024-01-29T17:44:32.723Z,24.33
2024-01-29T17:47:00.225Z,21.53
2024-01-29T17:49:27.857Z,26.77
2024-01-29T17:51:55.588Z,20.90
2024-01-29T17:54:23.254Z,25.73
2024-01-29T17:56:51.269Z,24.80
2024-01-29T17:59:18.600Z,24.70
2024-01-29T18:01:46.016Z,21.13
2024-01-29T18:04:13.405Z,25.50
2024-01-29T18:06:48.038Z,23.37
2024-01-29T18:09:15.850Z,25.15
2024-01-29T18:11:43.372Z,27.53
2024-01-29T18:14:10.652Z,26.30
2024-01-29T18:16:38.125Z,27.23
2024-01-29T18:19:06.571Z,25.00
2024-01-29T18:21:34.017Z,26.53
2024-01-29T18:24:02.082Z,23.83
2024-01-29T18:26:29.977Z,24.73
2024-01-29T18:28:58.930Z,27.73
2024-01-29T18:31:26.210Z,30.20
2024-01-29T18:33:53.770Z,28.87
2024-01-29T18:36:22.467Z,26.63
2024-01-29T18:38:49.980Z,27.40
2024-01-29T18:41:22.182Z,26.83
2024-01-29T18:43:49.439Z,25.67
2024-01-29T18:46:17.257Z,27.10
2024-01-29T18:48:44.971Z,25.47
2024-01-29T18:51:12.335Z,25.30
2024-01-29T18:53:39.901Z,26.67
2024-01-29T18:56:07.537Z,27.63
2024-01-29T18:58:35.897Z,27.90
2024-01-29T19:01:03.466Z,27.03
2024-01-29T19:03:30.907Z,24.50
2024-01-29T19:05:58.295Z,25.07
2024-01-29T19:08:25.723Z,24.37
2024-01-29T19:10:53.130Z,26.33
2024-01-29T19:13:20.643Z,25.43
2024-01-29T19:15:48.314Z,25.13
2024-01-29T19:18:16.466Z,24.83
2024-01-29T19:20:44.193Z,24.87
2024-01-29T19:23:11.676Z,23.43
2024-01-29T19:25:39.560Z,26.23
2024-01-29T19:28:07.481Z,23.93
2024-01-29T19:30:35.006Z,25.37
2024-01-29T19:33:02.362Z,25.60
2024-01-29T19:35:30.150Z,24.30
2024-01-29T19:37:57.900Z,24.87
2024-01-29T19:40:25.553Z,25.80
2024-01-29T19:42:52.910Z,24.97
2024-01-29T19:45:20.912Z,26.07
2024-01-29T19:47:49.088Z,25.70
2024-01-29T19:50:17.858Z,24.57
2024-01-29T19:52:46.205Z,24.53
2024-01-29T19:55:14.051Z,25.73
2024-01-29T19:57:42.498Z,25.20
2024-01-29T20:00:10.977Z,25.00
2024-01-29T20:02:38.822Z,25.30
2024-01-29T20:05:06.363Z,23.50
2024-01-29T20:07:34.811Z,25.93
2024-01-29T20:10:02.330Z,26.40
2024-01-29T20:12:30.818Z,27.00
2024-01-29T20:14:58.388Z,24.63
2024-01-29T20:17:26.745Z,24.77
2024-01-29T20:19:54.426Z,25.73
2024-01-29T20:22:21.973Z,22.80
2024-01-29T20:24:49.415Z,26.33
2024-01-29T20:27:16.981Z,28.07
2024-01-29T20:29:45.660Z,26.07
2024-01-29T20:32:13.062Z,26.90
2024-01-29T20:34:40.935Z,26.00
2024-01-29T20:37:08.387Z,26.07
2024-01-29T20:39:35.855Z,26.67
2024-01-29T20:42:03.181Z,25.50
2024-01-29T20:44:30.538Z,27.17
2024-01-29T20:46:58.117Z,27.63
2024-01-29T20:49:26.061Z,27.20
2024-01-29T20:51:53.733Z,27.03
2024-01-29T20:54:21.054Z,25.97
2024-01-29T20:56:48.314Z,27.53
2024-01-29T20:59:15.792Z,27.33
2024-01-29T21:01:47.857Z,25.70
2024-01-29T21:04:15.444Z,25.77
2024-01-29T21:06:42.902Z,25.40
2024-01-29T21:09:11.161Z,26.27
2024-01-29T21:11:38.526Z,24.70
2024-01-29T21:14:05.915Z,26.87
2024-01-29T21:16:33.302Z,26.40
2024-01-29T21:19:01.444Z,26.43
2024-01-29T21:21:29.851Z,29.10
2024-01-29T21:23:57.304Z,26.50
2024-01-29T21:26:28.164Z,26.00
2024-01-29T21:28:55.949Z,26.70
2024-01-29T21:31:23.564Z,24.97
2024-01-29T21:33:50.934Z,23.33
2024-01-29T21:36:19.026Z,26.07
2024-01-29T21:38:46.403Z,26.20
2024-01-29T21:41:14.288Z,24.27
2024-01-29T21:43:41.585Z,25.90
2024-01-29T21:46:11.216Z,25.07
2024-01-29T21:48:41.651Z,25.93
2024-01-29T21:51:09.150Z,25.63
2024-01-29T21:53:36.446Z,22.73
2024-01-29T21:56:04.118Z,26.33
2024-01-29T21:58:31.640Z,25.90
2024-01-29T22:00:59.196Z,24.40
2024-01-29T22:03:26.853Z,24.80
2024-01-29T22:05:54.190Z,23.17
2024-01-29T22:08:21.510Z,24.43
2024-01-29T22:10:48.794Z,24.80
2024-01-29T22:13:16.913Z,22.87
2024-01-29T22:15:44.244Z,23.77
2024-01-29T22:18:11.531Z,21.40
2024-01-29T22:20:38.858Z,23.13
2024-01-29T22:23:06.350Z,23.37
2024-01-29T22:25:33.604Z,24.60
2024-01-29T22:28:01.023Z,24.53
2024-01-29T22:30:28.402Z,22.63
2024-01-29T22:32:55.833Z,23.83
2024-01-29T22:35:23.306Z,22.57
2024-01-29T22:37:50.615Z,24.60
2024-01-29T22:40:18.061Z,24.83
2024-01-29T22:42:45.402Z,23.27
2024-01-29T22:45:12.800Z,22.47
2024-01-29T22:47:40.155Z,22.77
2024-01-29T22:50:10.433Z,23.10
2024-01-29T22:52:37.875Z,24.17
2024-01-29T22:55:05.368Z,22.67
2024-01-29T22:57:32.699Z,20.90
2024-01-29T22:59:59.946Z,21.20
2024-01-29T23:02:27.184Z,22.40
2024-01-29T23:04:54.610Z,19.77
2024-01-29T23:07:22.077Z,19.50
2024-01-29T23:09:49.403Z,20.13
2024-01-29T23:12:16.696Z,19.93
2024-01-29T23:14:44.767Z,21.10
2024-01-29T23:17:12.074Z,21.43
2024-01-29T23:19:39.539Z,18.77
2024-01-29T23:22:08.505Z,22.13
2024-01-29T23:24:35.975Z,20.53
2024-01-29T23:27:03.318Z,20.90
2024-01-29T23:29:30.624Z,21.60
2024-01-29T23:31:58.134Z,21.03
2024-01-29T23:34:25.593Z,20.13
2024-01-29T23:36:52.959Z,20.63
2024-01-29T23:39:20.435Z,20.57
2024-01-29T23:41:47.785Z,20.73
2024-01-29T23:44:15.104Z,20.80
2024-01-29T23:46:42.455Z,19.97
2024-01-29T23:49:09.864Z,20.10
2024-01-29T23:51:37.212Z,20.10
2024-01-29T23:54:05.175Z,20.87
2024-01-29T23:56:32.609Z,21.57
2024-01-29T23:58:59.909Z,21.43
